sensor_id;sensor_type;location;lat;lon;timestamp;P1;durP1;ratioP1;P2;durP2;ratioP2
75207;SDS011;63795;55.684;37.864;2023-06-26T00:03:11;20.35;;;11.75;;
75207;SDS011;63795;55.684;37.864;2023-06-26T00:08:14;28.13;;;13.68;;
75207;SDS011;63795;55.684;37.864;2023-06-26T00:13:14;34.00;;;15.13;;
75207;SDS011;63795;55.684;37.864;2023-06-26T00:18:15;35.47;;;17.70;;
75207;SDS011;63795;55.684;37.864;2023-06-26T00:23:16;41.28;;;18.95;;
75207;SDS011;63795;55.684;37.864;2023-06-26T00:28:17;34.97;;;19.60;;
75207;SDS011;63795;55.684;37.864;2023-06-26T00:33:17;38.73;;;20.00;;
75207;SDS011;63795;55.684;37.864;2023-06-26T00:38:18;39.28;;;18.48;;
75207;SDS011;63795;55.684;37.864;2023-06-26T00:43:18;36.35;;;17.60;;
75207;SDS011;63795;55.684;37.864;2023-06-26T00:48:19;36.15;;;19.48;;
75207;SDS011;63795;55.684;37.864;2023-06-26T00:53:20;33.58;;;18.33;;
75207;SDS011;63795;55.684;37.864;2023-06-26T00:58:21;29.08;;;14.27;;
75207;SDS011;63795;55.684;37.864;2023-06-26T01:03:24;35.28;;;14.70;;
75207;SDS011;63795;55.684;37.864;2023-06-26T01:08:25;33.17;;;17.08;;
75207;SDS011;63795;55.684;37.864;2023-06-26T01:13:27;38.63;;;18.35;;
75207;SDS011;63795;55.684;37.864;2023-06-26T01:18:29;37.78;;;19.25;;
75207;SDS011;63795;55.684;37.864;2023-06-26T01:28:53;31.90;;;17.75;;
75207;SDS011;63795;55.684;37.864;2023-06-26T01:33:59;34.35;;;15.65;;
75207;SDS011;63795;55.684;37.864;2023-06-26T01:39:01;34.92;;;17.95;;
75207;SDS011;63795;55.684;37.864;2023-06-26T01:44:25;29.45;;;13.60;;
75207;SDS011;63795;55.684;37.864;2023-06-26T02:00:40;22.77;;;10.95;;
75207;SDS011;63795;55.684;37.864;2023-06-26T02:05:41;31.30;;;14.60;;
75207;SDS011;63795;55.684;37.864;2023-06-26T02:10:42;30.10;;;12.77;;
75207;SDS011;63795;55.684;37.864;2023-06-26T02:15:42;28.00;;;13.80;;
75207;SDS011;63795;55.684;37.864;2023-06-26T02:20:43;31.63;;;15.30;;
75207;SDS011;63795;55.684;37.864;2023-06-26T02:25:44;32.35;;;15.77;;
75207;SDS011;63795;55.684;37.864;2023-06-26T02:30:44;28.02;;;13.00;;
75207;SDS011;63795;55.684;37.864;2023-06-26T02:35:45;32.92;;;14.23;;
75207;SDS011;63795;55.684;37.864;2023-06-26T02:40:45;34.33;;;14.40;;
75207;SDS011;63795;55.684;37.864;2023-06-26T02:45:45;29.70;;;14.83;;
75207;SDS011;63795;55.684;37.864;2023-06-26T02:50:46;27.30;;;14.23;;
75207;SDS011;63795;55.684;37.864;2023-06-26T02:55:46;32.92;;;14.73;;
75207;SDS011;63795;55.684;37.864;2023-06-26T03:00:47;22.27;;;10.70;;
75207;SDS011;63795;55.684;37.864;2023-06-26T03:05:48;23.58;;;12.10;;
75207;SDS011;63795;55.684;37.864;2023-06-26T03:10:48;24.25;;;12.40;;
75207;SDS011;63795;55.684;37.864;2023-06-26T03:15:49;26.33;;;11.93;;
75207;SDS011;63795;55.684;37.864;2023-06-26T03:20:49;25.73;;;14.20;;
75207;SDS011;63795;55.684;37.864;2023-06-26T03:25:50;27.40;;;14.23;;
75207;SDS011;63795;55.684;37.864;2023-06-26T03:30:51;28.52;;;13.50;;
75207;SDS011;63795;55.684;37.864;2023-06-26T03:35:51;26.30;;;11.30;;
75207;SDS011;63795;55.684;37.864;2023-06-26T03:40:52;23.20;;;12.10;;
75207;SDS011;63795;55.684;37.864;2023-06-26T03:45:52;25.23;;;13.60;;
75207;SDS011;63795;55.684;37.864;2023-06-26T03:50:53;23.77;;;13.13;;
75207;SDS011;63795;55.684;37.864;2023-06-26T03:55:53;22.27;;;10.55;;
75207;SDS011;63795;55.684;37.864;2023-06-26T04:00:54;18.93;;;9.50;;
75207;SDS011;63795;55.684;37.864;2023-06-26T04:05:55;22.58;;;12.40;;
75207;SDS011;63795;55.684;37.864;2023-06-26T04:10:56;20.07;;;10.00;;
75207;SDS011;63795;55.684;37.864;2023-06-26T04:15:58;16.40;;;8.73;;
75207;SDS011;63795;55.684;37.864;2023-06-26T04:21:20;18.10;;;9.30;;
75207;SDS011;63795;55.684;37.864;2023-06-26T04:26:20;15.00;;;5.55;;
75207;SDS011;63795;55.684;37.864;2023-06-26T04:31:20;14.55;;;6.90;;
75207;SDS011;63795;55.684;37.864;2023-06-26T04:36:22;12.63;;;5.80;;
75207;SDS011;63795;55.684;37.864;2023-06-26T04:41:22;15.80;;;6.35;;
75207;SDS011;63795;55.684;37.864;2023-06-26T04:46:23;13.85;;;5.18;;
75207;SDS011;63795;55.684;37.864;2023-06-26T04:51:24;11.32;;;5.97;;
75207;SDS011;63795;55.684;37.864;2023-06-26T04:56:27;9.50;;;3.78;;
75207;SDS011;63795;55.684;37.864;2023-06-26T05:01:27;9.33;;;5.03;;
75207;SDS011;63795;55.684;37.864;2023-06-26T05:06:29;9.18;;;4.25;;
75207;SDS011;63795;55.684;37.864;2023-06-26T05:11:30;12.10;;;5.18;;
75207;SDS011;63795;55.684;37.864;2023-06-26T05:16:31;13.88;;;4.82;;
75207;SDS011;63795;55.684;37.864;2023-06-26T05:21:31;13.33;;;5.57;;
75207;SDS011;63795;55.684;37.864;2023-06-26T05:26:32;12.93;;;3.88;;
75207;SDS011;63795;55.684;37.864;2023-06-26T05:31:33;10.63;;;3.83;;
75207;SDS011;63795;55.684;37.864;2023-06-26T05:36:37;14.93;;;7.28;;
75207;SDS011;63795;55.684;37.864;2023-06-26T05:46:39;11.50;;;3.75;;
75207;SDS011;63795;55.684;37.864;2023-06-26T05:51:40;10.82;;;3.28;;
75207;SDS011;63795;55.684;37.864;2023-06-26T05:56:41;11.68;;;3.92;;
75207;SDS011;63795;55.684;37.864;2023-06-26T06:01:41;13.27;;;4.55;;
75207;SDS011;63795;55.684;37.864;2023-06-26T06:06:42;9.13;;;3.70;;
75207;SDS011;63795;55.684;37.864;2023-06-26T06:11:42;9.53;;;4.27;;
75207;SDS011;63795;55.684;37.864;2023-06-26T06:16:43;6.65;;;3.33;;
75207;SDS011;63795;55.684;37.864;2023-06-26T06:21:43;9.50;;;4.50;;
75207;SDS011;63795;55.684;37.864;2023-06-26T06:26:44;8.90;;;3.38;;
75207;SDS011;63795;55.684;37.864;2023-06-26T06:31:44;8.80;;;2.63;;
75207;SDS011;63795;55.684;37.864;2023-06-26T06:36:45;7.50;;;2.85;;
75207;SDS011;63795;55.684;37.864;2023-06-26T06:41:46;8.10;;;4.50;;
75207;SDS011;63795;55.684;37.864;2023-06-26T06:46:47;5.10;;;2.97;;
75207;SDS011;63795;55.684;37.864;2023-06-26T06:51:47;7.28;;;4.53;;
75207;SDS011;63795;55.684;37.864;2023-06-26T06:56:48;7.53;;;4.30;;
75207;SDS011;63795;55.684;37.864;2023-06-26T07:01:48;7.17;;;3.27;;
75207;SDS011;63795;55.684;37.864;2023-06-26T07:06:49;7.60;;;2.97;;
75207;SDS011;63795;55.684;37.864;2023-06-26T07:11:49;8.13;;;3.83;;
75207;SDS011;63795;55.684;37.864;2023-06-26T07:16:50;9.45;;;5.15;;
75207;SDS011;63795;55.684;37.864;2023-06-26T07:21:50;6.40;;;4.20;;
75207;SDS011;63795;55.684;37.864;2023-06-26T07:26:51;10.10;;;4.57;;
75207;SDS011;63795;55.684;37.864;2023-06-26T07:31:51;7.43;;;2.60;;
75207;SDS011;63795;55.684;37.864;2023-06-26T07:36:51;9.35;;;3.20;;
75207;SDS011;63795;55.684;37.864;2023-06-26T07:41:52;5.83;;;2.13;;
75207;SDS011;63795;55.684;37.864;2023-06-26T07:46:52;5.25;;;1.83;;
75207;SDS011;63795;55.684;37.864;2023-06-26T07:51:53;4.80;;;3.88;;
75207;SDS011;63795;55.684;37.864;2023-06-26T07:57:00;5.38;;;2.40;;
75207;SDS011;63795;55.684;37.864;2023-06-26T08:02:02;5.63;;;3.72;;
75207;SDS011;63795;55.684;37.864;2023-06-26T08:07:03;5.35;;;2.65;;
75207;SDS011;63795;55.684;37.864;2023-06-26T08:12:04;5.57;;;2.90;;
75207;SDS011;63795;55.684;37.864;2023-06-26T08:17:05;4.93;;;2.42;;
75207;SDS011;63795;55.684;37.864;2023-06-26T08:22:05;6.78;;;3.15;;
75207;SDS011;63795;55.684;37.864;2023-06-26T08:27:05;5.28;;;1.70;;
75207;SDS011;63795;55.684;37.864;2023-06-26T08:32:07;8.15;;;3.28;;
75207;SDS011;63795;55.684;37.864;2023-06-26T08:37:08;6.78;;;3.22;;
75207;SDS011;63795;55.684;37.864;2023-06-26T08:42:09;8.23;;;3.30;;
75207;SDS011;63795;55.684;37.864;2023-06-26T08:47:10;7.00;;;3.75;;
75207;SDS011;63795;55.684;37.864;2023-06-26T08:52:33;15.65;;;9.32;;
75207;SDS011;63795;55.684;37.864;2023-06-26T08:57:36;16.50;;;8.85;;
75207;SDS011;63795;55.684;37.864;2023-06-26T09:02:37;21.98;;;11.45;;
75207;SDS011;63795;55.684;37.864;2023-06-26T09:07:39;11.00;;;4.88;;
75207;SDS011;63795;55.684;37.864;2023-06-26T09:12:39;4.95;;;1.25;;
75207;SDS011;63795;55.684;37.864;2023-06-26T09:17:40;7.90;;;1.58;;
75207;SDS011;63795;55.684;37.864;2023-06-26T09:22:43;7.10;;;2.83;;
75207;SDS011;63795;55.684;37.864;2023-06-26T09:27:47;7.07;;;3.03;;
75207;SDS011;63795;55.684;37.864;2023-06-26T09:32:48;7.03;;;1.83;;
75207;SDS011;63795;55.684;37.864;2023-06-26T09:37:50;50.00;;;28.90;;
75207;SDS011;63795;55.684;37.864;2023-06-26T09:42:51;8.60;;;2.28;;
75207;SDS011;63795;55.684;37.864;2023-06-26T09:47:51;6.07;;;2.22;;
75207;SDS011;63795;55.684;37.864;2023-06-26T09:52:52;5.30;;;1.77;;
75207;SDS011;63795;55.684;37.864;2023-06-26T09:57:52;4.78;;;2.65;;
75207;SDS011;63795;55.684;37.864;2023-06-26T10:02:56;5.45;;;2.47;;
75207;SDS011;63795;55.684;37.864;2023-06-26T10:07:58;5.18;;;2.00;;
75207;SDS011;63795;55.684;37.864;2023-06-26T10:12:59;9.98;;;5.93;;
75207;SDS011;63795;55.684;37.864;2023-06-26T10:18:04;4.53;;;2.13;;
75207;SDS011;63795;55.684;37.864;2023-06-26T10:23:05;6.18;;;2.10;;
75207;SDS011;63795;55.684;37.864;2023-06-26T10:28:08;4.30;;;2.15;;
75207;SDS011;63795;55.684;37.864;2023-06-26T10:33:11;8.02;;;3.70;;
75207;SDS011;63795;55.684;37.864;2023-06-26T10:43:13;4.95;;;2.95;;
75207;SDS011;63795;55.684;37.864;2023-06-26T10:48:15;6.90;;;2.80;;
75207;SDS011;63795;55.684;37.864;2023-06-26T10:53:21;5.00;;;1.67;;
75207;SDS011;63795;55.684;37.864;2023-06-26T11:03:32;6.13;;;2.55;;
75207;SDS011;63795;55.684;37.864;2023-06-26T11:08:45;6.57;;;2.63;;
75207;SDS011;63795;55.684;37.864;2023-06-26T11:13:48;6.88;;;2.00;;
75207;SDS011;63795;55.684;37.864;2023-06-26T11:18:49;5.45;;;1.27;;
75207;SDS011;63795;55.684;37.864;2023-06-26T11:23:49;7.32;;;2.20;;
75207;SDS011;63795;55.684;37.864;2023-06-26T11:28:52;5.32;;;2.22;;
75207;SDS011;63795;55.684;37.864;2023-06-26T11:34:01;5.68;;;2.53;;
75207;SDS011;63795;55.684;37.864;2023-06-26T11:44:09;7.20;;;2.63;;
75207;SDS011;63795;55.684;37.864;2023-06-26T11:49:10;4.63;;;2.28;;
75207;SDS011;63795;55.684;37.864;2023-06-26T11:54:10;8.95;;;3.65;;
75207;SDS011;63795;55.684;37.864;2023-06-26T11:59:12;6.47;;;3.33;;
75207;SDS011;63795;55.684;37.864;2023-06-26T12:04:14;6.22;;;2.10;;
75207;SDS011;63795;55.684;37.864;2023-06-26T12:09:17;6.38;;;3.30;;
75207;SDS011;63795;55.684;37.864;2023-06-26T12:14:19;5.18;;;1.95;;
75207;SDS011;63795;55.684;37.864;2023-06-26T12:19:24;7.60;;;1.27;;
75207;SDS011;63795;55.684;37.864;2023-06-26T12:24:28;5.80;;;2.53;;
75207;SDS011;63795;55.684;37.864;2023-06-26T12:29:32;4.68;;;2.25;;
75207;SDS011;63795;55.684;37.864;2023-06-26T12:34:34;15.40;;;10.00;;
75207;SDS011;63795;55.684;37.864;2023-06-26T12:44:50;7.32;;;3.50;;
75207;SDS011;63795;55.684;37.864;2023-06-26T12:49:52;4.65;;;1.98;;
75207;SDS011;63795;55.684;37.864;2023-06-26T12:54:53;6.07;;;1.58;;
75207;SDS011;63795;55.684;37.864;2023-06-26T12:59:55;9.55;;;2.75;;
75207;SDS011;63795;55.684;37.864;2023-06-26T13:09:56;5.13;;;2.17;;
75207;SDS011;63795;55.684;37.864;2023-06-26T13:19:57;7.50;;;1.75;;
75207;SDS011;63795;55.684;37.864;2023-06-26T13:24:58;5.78;;;2.15;;
75207;SDS011;63795;55.684;37.864;2023-06-26T13:34:58;4.43;;;1.50;;
75207;SDS011;63795;55.684;37.864;2023-06-26T13:39:59;5.33;;;2.83;;
75207;SDS011;63795;55.684;37.864;2023-06-26T13:45:02;3.25;;;1.00;;
75207;SDS011;63795;55.684;37.864;2023-06-26T13:50:03;5.35;;;1.05;;
75207;SDS011;63795;55.684;37.864;2023-06-26T13:55:06;6.03;;;1.83;;
75207;SDS011;63795;55.684;37.864;2023-06-26T14:00:08;3.70;;;1.95;;
75207;SDS011;63795;55.684;37.864;2023-06-26T14:05:09;6.00;;;2.45;;
75207;SDS011;63795;55.684;37.864;2023-06-26T14:10:10;6.05;;;1.55;;
75207;SDS011;63795;55.684;37.864;2023-06-26T14:20:11;7.17;;;1.87;;
75207;SDS011;63795;55.684;37.864;2023-06-26T14:25:16;4.93;;;1.95;;
75207;SDS011;63795;55.684;37.864;2023-06-26T14:30:17;7.07;;;2.50;;
75207;SDS011;63795;55.684;37.864;2023-06-26T14:35:17;5.20;;;1.33;;
75207;SDS011;63795;55.684;37.864;2023-06-26T14:40:19;5.55;;;1.55;;
75207;SDS011;63795;55.684;37.864;2023-06-26T14:45:19;4.75;;;1.98;;
75207;SDS011;63795;55.684;37.864;2023-06-26T14:50:20;4.68;;;1.50;;
75207;SDS011;63795;55.684;37.864;2023-06-26T14:55:21;4.90;;;1.85;;
75207;SDS011;63795;55.684;37.864;2023-06-26T15:00:21;5.03;;;1.38;;
75207;SDS011;63795;55.684;37.864;2023-06-26T15:05:22;3.35;;;1.00;;
75207;SDS011;63795;55.684;37.864;2023-06-26T15:10:22;13.68;;;1.65;;
75207;SDS011;63795;55.684;37.864;2023-06-26T15:15:23;9.02;;;1.83;;
75207;SDS011;63795;55.684;37.864;2023-06-26T15:20:25;8.77;;;2.45;;
75207;SDS011;63795;55.684;37.864;2023-06-26T15:25:25;6.30;;;1.83;;
75207;SDS011;63795;55.684;37.864;2023-06-26T15:30:26;7.72;;;2.63;;
75207;SDS011;63795;55.684;37.864;2023-06-26T15:35:27;32.90;;;20.07;;
75207;SDS011;63795;55.684;37.864;2023-06-26T15:40:27;5.35;;;2.25;;
75207;SDS011;63795;55.684;37.864;2023-06-26T15:45:28;5.00;;;2.17;;
75207;SDS011;63795;55.684;37.864;2023-06-26T15:50:29;4.32;;;1.58;;
75207;SDS011;63795;55.684;37.864;2023-06-26T15:55:29;5.38;;;1.33;;
75207;SDS011;63795;55.684;37.864;2023-06-26T16:00:30;7.15;;;1.65;;
75207;SDS011;63795;55.684;37.864;2023-06-26T16:05:30;4.15;;;1.55;;
75207;SDS011;63795;55.684;37.864;2023-06-26T16:10:31;4.60;;;1.70;;
75207;SDS011;63795;55.684;37.864;2023-06-26T16:15:31;8.07;;;2.15;;
75207;SDS011;63795;55.684;37.864;2023-06-26T16:20:32;6.53;;;2.25;;
75207;SDS011;63795;55.684;37.864;2023-06-26T16:25:33;8.10;;;1.07;;
75207;SDS011;63795;55.684;37.864;2023-06-26T16:30:33;4.47;;;1.85;;
75207;SDS011;63795;55.684;37.864;2023-06-26T16:35:34;4.35;;;2.25;;
75207;SDS011;63795;55.684;37.864;2023-06-26T16:40:34;6.05;;;2.22;;
75207;SDS011;63795;55.684;37.864;2023-06-26T16:45:35;5.00;;;2.28;;
75207;SDS011;63795;55.684;37.864;2023-06-26T16:50:36;6.05;;;1.60;;
75207;SDS011;63795;55.684;37.864;2023-06-26T16:55:37;5.47;;;3.35;;
75207;SDS011;63795;55.684;37.864;2023-06-26T17:00:37;18.38;;;9.77;;
75207;SDS011;63795;55.684;37.864;2023-06-26T17:05:38;9.70;;;4.10;;
75207;SDS011;63795;55.684;37.864;2023-06-26T17:10:39;6.78;;;2.53;;
75207;SDS011;63795;55.684;37.864;2023-06-26T17:15:39;11.15;;;3.10;;
75207;SDS011;63795;55.684;37.864;2023-06-26T17:20:40;12.73;;;3.38;;
75207;SDS011;63795;55.684;37.864;2023-06-26T17:25:40;26.10;;;14.30;;
75207;SDS011;63795;55.684;37.864;2023-06-26T17:30:41;12.57;;;7.63;;
75207;SDS011;63795;55.684;37.864;2023-06-26T17:35:42;30.30;;;13.90;;
75207;SDS011;63795;55.684;37.864;2023-06-26T17:40:42;19.65;;;10.82;;
75207;SDS011;63795;55.684;37.864;2023-06-26T17:45:43;6.43;;;3.63;;
75207;SDS011;63795;55.684;37.864;2023-06-26T17:50:43;9.82;;;2.95;;
75207;SDS011;63795;55.684;37.864;2023-06-26T17:55:44;10.65;;;4.18;;
75207;SDS011;63795;55.684;37.864;2023-06-26T18:00:45;6.97;;;2.78;;
75207;SDS011;63795;55.684;37.864;2023-06-26T18:05:45;9.35;;;3.88;;
75207;SDS011;63795;55.684;37.864;2023-06-26T18:10:46;31.40;;;14.52;;
75207;SDS011;63795;55.684;37.864;2023-06-26T18:15:46;8.87;;;2.73;;
75207;SDS011;63795;55.684;37.864;2023-06-26T18:20:47;12.15;;;5.10;;
75207;SDS011;63795;55.684;37.864;2023-06-26T18:25:47;9.55;;;3.47;;
75207;SDS011;63795;55.684;37.864;2023-06-26T18:30:48;8.23;;;4.47;;
75207;SDS011;63795;55.684;37.864;2023-06-26T18:35:48;12.95;;;4.53;;
75207;SDS011;63795;55.684;37.864;2023-06-26T18:40:49;12.18;;;4.25;;
75207;SDS011;63795;55.684;37.864;2023-06-26T18:45:50;10.70;;;3.35;;
75207;SDS011;63795;55.684;37.864;2023-06-26T18:50:51;12.25;;;6.13;;
75207;SDS011;63795;55.684;37.864;2023-06-26T18:55:51;12.13;;;5.15;;
75207;SDS011;63795;55.684;37.864;2023-06-26T19:00:52;15.90;;;6.15;;
75207;SDS011;63795;55.684;37.864;2023-06-26T19:05:52;11.68;;;4.38;;
75207;SDS011;63795;55.684;37.864;2023-06-26T19:10:53;13.37;;;3.53;;
75207;SDS011;63795;55.684;37.864;2023-06-26T19:15:53;16.38;;;8.25;;
75207;SDS011;63795;55.684;37.864;2023-06-26T19:20:54;9.20;;;4.57;;
75207;SDS011;63795;55.684;37.864;2023-06-26T19:25:54;9.23;;;3.55;;
75207;SDS011;63795;55.684;37.864;2023-06-26T19:30:56;10.68;;;4.25;;
75207;SDS011;63795;55.684;37.864;2023-06-26T19:35:56;7.77;;;3.57;;
75207;SDS011;63795;55.684;37.864;2023-06-26T19:40:57;8.07;;;3.35;;
75207;SDS011;63795;55.684;37.864;2023-06-26T19:45:58;9.10;;;4.35;;
75207;SDS011;63795;55.684;37.864;2023-06-26T19:50:59;10.57;;;5.82;;
75207;SDS011;63795;55.684;37.864;2023-06-26T19:55:59;9.15;;;3.38;;
75207;SDS011;63795;55.684;37.864;2023-06-26T20:01:00;10.13;;;2.67;;
75207;SDS011;63795;55.684;37.864;2023-06-26T20:06:00;9.30;;;4.63;;
75207;SDS011;63795;55.684;37.864;2023-06-26T20:11:01;10.30;;;4.00;;
75207;SDS011;63795;55.684;37.864;2023-06-26T20:16:01;14.07;;;6.50;;
75207;SDS011;63795;55.684;37.864;2023-06-26T20:21:02;13.35;;;8.02;;
75207;SDS011;63795;55.684;37.864;2023-06-26T20:26:03;15.05;;;5.20;;
75207;SDS011;63795;55.684;37.864;2023-06-26T20:31:03;7.97;;;3.00;;
75207;SDS011;63795;55.684;37.864;2023-06-26T20:36:04;7.25;;;2.58;;
75207;SDS011;63795;55.684;37.864;2023-06-26T20:41:05;6.32;;;2.40;;
75207;SDS011;63795;55.684;37.864;2023-06-26T20:46:05;6.85;;;2.15;;
75207;SDS011;63795;55.684;37.864;2023-06-26T20:51:07;5.55;;;2.35;;
75207;SDS011;63795;55.684;37.864;2023-06-26T20:56:08;6.07;;;1.90;;
75207;SDS011;63795;55.684;37.864;2023-06-26T21:01:09;4.97;;;1.88;;
75207;SDS011;63795;55.684;37.864;2023-06-26T21:06:10;40.08;;;23.33;;
75207;SDS011;63795;55.684;37.864;2023-06-26T21:11:10;25.33;;;12.85;;
75207;SDS011;63795;55.684;37.864;2023-06-26T21:16:11;6.82;;;1.77;;
75207;SDS011;63795;55.684;37.864;2023-06-26T21:21:11;5.50;;;1.50;;
75207;SDS011;63795;55.684;37.864;2023-06-26T21:26:12;6.10;;;2.40;;
75207;SDS011;63795;55.684;37.864;2023-06-26T21:31:12;5.25;;;1.58;;
75207;SDS011;63795;55.684;37.864;2023-06-26T21:36:13;13.95;;;6.70;;
75207;SDS011;63795;55.684;37.864;2023-06-26T21:41:14;6.78;;;1.95;;
75207;SDS011;63795;55.684;37.864;2023-06-26T21:46:16;11.07;;;5.03;;
75207;SDS011;63795;55.684;37.864;2023-06-26T21:51:17;5.13;;;1.70;;
75207;SDS011;63795;55.684;37.864;2023-06-26T21:56:18;7.38;;;2.30;;
75207;SDS011;63795;55.684;37.864;2023-06-26T22:01:19;7.30;;;3.22;;
75207;SDS011;63795;55.684;37.864;2023-06-26T22:06:19;7.13;;;1.95;;
75207;SDS011;63795;55.684;37.864;2023-06-26T22:11:20;6.20;;;2.88;;
75207;SDS011;63795;55.684;37.864;2023-06-26T22:16:20;8.30;;;2.42;;
75207;SDS011;63795;55.684;37.864;2023-06-26T22:21:21;8.48;;;2.50;;
75207;SDS011;63795;55.684;37.864;2023-06-26T22:26:21;7.68;;;2.53;;
75207;SDS011;63795;55.684;37.864;2023-06-26T22:31:22;7.90;;;3.70;;
75207;SDS011;63795;55.684;37.864;2023-06-26T22:36:22;6.28;;;2.53;;
75207;SDS011;63795;55.684;37.864;2023-06-26T22:41:29;13.00;;;3.20;;
75207;SDS011;63795;55.684;37.864;2023-06-26T22:46:29;7.60;;;2.55;;
75207;SDS011;63795;55.684;37.864;2023-06-26T22:51:30;5.07;;;1.85;;
75207;SDS011;63795;55.684;37.864;2023-06-26T22:56:32;6.40;;;2.13;;
75207;SDS011;63795;55.684;37.864;2023-06-26T23:01:33;5.43;;;2.05;;
75207;SDS011;63795;55.684;37.864;2023-06-26T23:06:36;5.85;;;2.63;;
75207;SDS011;63795;55.684;37.864;2023-06-26T23:11:37;10.02;;;3.97;;
75207;SDS011;63795;55.684;37.864;2023-06-26T23:16:38;11.25;;;4.03;;
75207;SDS011;63795;55.684;37.864;2023-06-26T23:21:39;12.25;;;4.03;;
75207;SDS011;63795;55.684;37.864;2023-06-26T23:26:39;9.77;;;3.90;;
75207;SDS011;63795;55.684;37.864;2023-06-26T23:31:40;12.57;;;2.60;;
75207;SDS011;63795;55.684;37.864;2023-06-26T23:36:46;10.98;;;3.63;;
75207;SDS011;63795;55.684;37.864;2023-06-26T23:41:50;8.07;;;3.53;;
75207;SDS011;63795;55.684;37.864;2023-06-26T23:46:50;5.80;;;2.42;;
75207;SDS011;63795;55.684;37.864;2023-06-26T23:51:51;6.97;;;4.03;;
75207;SDS011;63795;55.684;37.864;2023-06-26T23:56:51;7.70;;;2.10;;
